sensor_id;sensor_type;location;lat;lon;timestamp;temperature;humidity
29321;DHT22;16323;51.130;6.612;2023-03-11T00:00:33;15.60;51.40
29321;DHT22;16323;51.130;6.612;2023-03-11T00:03:04;15.60;51.50
29321;DHT22;16323;51.130;6.612;2023-03-11T00:05:34;15.60;51.40
29321;DHT22;16323;51.130;6.612;2023-03-11T00:08:02;15.70;51.20
29321;DHT22;16323;51.130;6.612;2023-03-11T00:10:31;15.70;51.20
29321;DHT22;16323;51.130;6.612;2023-03-11T00:12:58;15.70;50.80
29321;DHT22;16323;51.130;6.612;2023-03-11T00:15:26;15.70;51.20
29321;DHT22;16323;51.130;6.612;2023-03-11T00:17:53;15.70;51.40
29321;DHT22;16323;51.130;6.612;2023-03-11T00:20:22;15.60;51.00
29321;DHT22;16323;51.130;6.612;2023-03-11T00:22:51;15.60;51.20
29321;DHT22;16323;51.130;6.612;2023-03-11T00:25:18;15.60;51.20
29321;DHT22;16323;51.130;6.612;2023-03-11T00:27:45;15.60;51.00
29321;DHT22;16323;51.130;6.612;2023-03-11T00:30:14;15.60;51.00
29321;DHT22;16323;51.130;6.612;2023-03-11T00:32:42;15.60;51.00
29321;DHT22;16323;51.130;6.612;2023-03-11T00:35:11;15.60;50.90
29321;DHT22;16323;51.130;6.612;2023-03-11T00:37:38;15.60;50.80
29321;DHT22;16323;51.130;6.612;2023-03-11T00:40:11;15.60;50.70
29321;DHT22;16323;51.130;6.612;2023-03-11T00:42:38;15.60;50.60
29321;DHT22;16323;51.130;6.612;2023-03-11T00:45:05;15.60;50.80
29321;DHT22;16323;51.130;6.612;2023-03-11T00:47:33;15.60;50.90
29321;DHT22;16323;51.130;6.612;2023-03-11T00:49:59;15.70;51.10
29321;DHT22;16323;51.130;6.612;2023-03-11T00:52:26;15.70;51.20
29321;DHT22;16323;51.130;6.612;2023-03-11T00:54:53;15.70;51.40
29321;DHT22;16323;51.130;6.612;2023-03-11T00:57:21;15.70;51.40
29321;DHT22;16323;51.130;6.612;2023-03-11T00:59:48;15.70;51.30
29321;DHT22;16323;51.130;6.612;2023-03-11T01:02:15;15.70;51.40
29321;DHT22;16323;51.130;6.612;2023-03-11T01:04:42;15.70;51.20
29321;DHT22;16323;51.130;6.612;2023-03-11T01:07:09;15.80;51.30
29321;DHT22;16323;51.130;6.612;2023-03-11T01:09:36;15.70;51.50
29321;DHT22;16323;51.130;6.612;2023-03-11T01:12:03;15.70;51.20
29321;DHT22;16323;51.130;6.612;2023-03-11T01:14:31;15.70;51.20
29321;DHT22;16323;51.130;6.612;2023-03-11T01:16:58;15.70;50.80
29321;DHT22;16323;51.130;6.612;2023-03-11T01:19:24;15.70;50.70
29321;DHT22;16323;51.130;6.612;2023-03-11T01:21:51;15.70;50.70
29321;DHT22;16323;51.130;6.612;2023-03-11T01:24:18;15.70;50.30
29321;DHT22;16323;51.130;6.612;2023-03-11T01:26:45;15.70;50.30
29321;DHT22;16323;51.130;6.612;2023-03-11T01:29:12;15.70;50.70
29321;DHT22;16323;51.130;6.612;2023-03-11T01:31:40;15.70;50.70
29321;DHT22;16323;51.130;6.612;2023-03-11T01:34:07;15.70;50.60
29321;DHT22;16323;51.130;6.612;2023-03-11T01:36:33;15.70;50.60
29321;DHT22;16323;51.130;6.612;2023-03-11T01:39:00;15.70;50.70
29321;DHT22;16323;51.130;6.612;2023-03-11T01:41:27;15.70;50.60
29321;DHT22;16323;51.130;6.612;2023-03-11T01:43:54;15.70;50.70
29321;DHT22;16323;51.130;6.612;2023-03-11T01:46:23;15.70;50.70
29321;DHT22;16323;51.130;6.612;2023-03-11T01:48:53;15.70;51.00
29321;DHT22;16323;51.130;6.612;2023-03-11T01:51:24;15.70;50.70
29321;DHT22;16323;51.130;6.612;2023-03-11T01:53:53;15.70;50.90
29321;DHT22;16323;51.130;6.612;2023-03-11T01:56:21;15.80;51.00
29321;DHT22;16323;51.130;6.612;2023-03-11T01:58:50;15.70;50.80
29321;DHT22;16323;51.130;6.612;2023-03-11T02:01:18;15.70;51.10
29321;DHT22;16323;51.130;6.612;2023-03-11T02:03:46;15.80;50.90
29321;DHT22;16323;51.130;6.612;2023-03-11T02:06:18;15.80;50.80
29321;DHT22;16323;51.130;6.612;2023-03-11T02:08:47;15.80;50.70
29321;DHT22;16323;51.130;6.612;2023-03-11T02:11:16;15.80;50.70
29321;DHT22;16323;51.130;6.612;2023-03-11T02:13:45;15.80;50.80
29321;DHT22;16323;51.130;6.612;2023-03-11T02:16:13;15.70;50.00
29321;DHT22;16323;51.130;6.612;2023-03-11T02:18:41;15.70;50.00
29321;DHT22;16323;51.130;6.612;2023-03-11T02:21:16;15.70;50.00
29321;DHT22;16323;51.130;6.612;2023-03-11T02:23:50;15.70;50.10
29321;DHT22;16323;51.130;6.612;2023-03-11T02:26:22;15.70;50.00
29321;DHT22;16323;51.130;6.612;2023-03-11T02:28:52;15.70;50.00
29321;DHT22;16323;51.130;6.612;2023-03-11T02:31:20;15.70;51.10
29321;DHT22;16323;51.130;6.612;2023-03-11T02:33:49;15.70;50.00
29321;DHT22;16323;51.130;6.612;2023-03-11T02:36:35;15.70;50.00
29321;DHT22;16323;51.130;6.612;2023-03-11T02:39:03;15.70;50.00
29321;DHT22;16323;51.130;6.612;2023-03-11T02:41:31;15.70;50.00
29321;DHT22;16323;51.130;6.612;2023-03-11T02:44:00;15.60;49.90
29321;DHT22;16323;51.130;6.612;2023-03-11T02:46:28;15.60;49.20
29321;DHT22;16323;51.130;6.612;2023-03-11T02:48:55;15.60;48.80
29321;DHT22;16323;51.130;6.612;2023-03-11T02:51:22;15.60;48.90
29321;DHT22;16323;51.130;6.612;2023-03-11T02:53:52;15.60;48.40
29321;DHT22;16323;51.130;6.612;2023-03-11T02:56:20;15.60;48.30
29321;DHT22;16323;51.130;6.612;2023-03-11T02:58:47;15.60;48.50
29321;DHT22;16323;51.130;6.612;2023-03-11T03:01:15;15.60;48.40
29321;DHT22;16323;51.130;6.612;2023-03-11T03:04:16;15.60;48.30
29321;DHT22;16323;51.130;6.612;2023-03-11T03:06:42;15.60;48.70
29321;DHT22;16323;51.130;6.612;2023-03-11T03:09:09;15.60;48.80
29321;DHT22;16323;51.130;6.612;2023-03-11T03:11:36;15.60;49.00
29321;DHT22;16323;51.130;6.612;2023-03-11T03:14:03;15.60;49.00
29321;DHT22;16323;51.130;6.612;2023-03-11T03:16:31;15.60;48.60
29321;DHT22;16323;51.130;6.612;2023-03-11T03:18:58;15.60;48.40
29321;DHT22;16323;51.130;6.612;2023-03-11T03:21:24;15.60;48.50
29321;DHT22;16323;51.130;6.612;2023-03-11T03:23:51;15.60;48.60
29321;DHT22;16323;51.130;6.612;2023-03-11T03:26:18;15.60;48.40
29321;DHT22;16323;51.130;6.612;2023-03-11T03:28:45;15.60;48.50
29321;DHT22;16323;51.130;6.612;2023-03-11T03:31:12;15.60;48.80
29321;DHT22;16323;51.130;6.612;2023-03-11T03:33:40;15.70;48.80
29321;DHT22;16323;51.130;6.612;2023-03-11T03:36:09;15.60;49.10
29321;DHT22;16323;51.130;6.612;2023-03-11T03:38:36;15.60;49.30
29321;DHT22;16323;51.130;6.612;2023-03-11T03:41:03;15.70;49.50
29321;DHT22;16323;51.130;6.612;2023-03-11T03:43:30;15.60;49.20
29321;DHT22;16323;51.130;6.612;2023-03-11T03:45:58;15.60;49.20
29321;DHT22;16323;51.130;6.612;2023-03-11T03:48:26;15.60;49.20
29321;DHT22;16323;51.130;6.612;2023-03-11T03:50:55;15.60;49.10
29321;DHT22;16323;51.130;6.612;2023-03-11T03:53:22;15.70;49.10
29321;DHT22;16323;51.130;6.612;2023-03-11T03:55:48;15.70;49.30
29321;DHT22;16323;51.130;6.612;2023-03-11T03:58:15;15.70;49.40
29321;DHT22;16323;51.130;6.612;2023-03-11T04:00:42;15.70;49.70
29321;DHT22;16323;51.130;6.612;2023-03-11T04:03:09;15.80;50.00
29321;DHT22;16323;51.130;6.612;2023-03-11T04:05:36;15.80;50.10
29321;DHT22;16323;51.130;6.612;2023-03-11T04:08:04;15.70;49.30
29321;DHT22;16323;51.130;6.612;2023-03-11T04:10:31;15.70;49.40
29321;DHT22;16323;51.130;6.612;2023-03-11T04:12:57;15.70;49.30
29321;DHT22;16323;51.130;6.612;2023-03-11T04:15:24;15.80;49.10
29321;DHT22;16323;51.130;6.612;2023-03-11T04:17:51;15.70;49.00
29321;DHT22;16323;51.130;6.612;2023-03-11T04:20:18;15.70;49.40
29321;DHT22;16323;51.130;6.612;2023-03-11T04:22:45;15.70;49.40
29321;DHT22;16323;51.130;6.612;2023-03-11T04:25:13;15.70;49.20
29321;DHT22;16323;51.130;6.612;2023-03-11T04:27:40;15.70;49.20
29321;DHT22;16323;51.130;6.612;2023-03-11T04:30:11;15.70;49.60
29321;DHT22;16323;51.130;6.612;2023-03-11T04:32:38;15.70;49.90
29321;DHT22;16323;51.130;6.612;2023-03-11T04:35:05;15.70;49.50
29321;DHT22;16323;51.130;6.612;2023-03-11T04:37:32;15.70;49.70
29321;DHT22;16323;51.130;6.612;2023-03-11T04:39:59;15.70;49.60
29321;DHT22;16323;51.130;6.612;2023-03-11T04:42:27;15.70;50.00
29321;DHT22;16323;51.130;6.612;2023-03-11T04:44:54;15.70;50.00
29321;DHT22;16323;51.130;6.612;2023-03-11T04:47:21;15.70;50.00
29321;DHT22;16323;51.130;6.612;2023-03-11T04:49:48;15.60;49.90
29321;DHT22;16323;51.130;6.612;2023-03-11T04:52:14;15.70;50.00
29321;DHT22;16323;51.130;6.612;2023-03-11T04:54:41;15.70;50.00
29321;DHT22;16323;51.130;6.612;2023-03-11T04:57:08;15.70;50.00
29321;DHT22;16323;51.130;6.612;2023-03-11T04:59:37;15.70;50.00
29321;DHT22;16323;51.130;6.612;2023-03-11T05:02:04;15.70;50.00
29321;DHT22;16323;51.130;6.612;2023-03-11T05:04:31;15.70;50.00
29321;DHT22;16323;51.130;6.612;2023-03-11T05:06:58;15.70;50.00
29321;DHT22;16323;51.130;6.612;2023-03-11T05:09:25;15.80;50.10
29321;DHT22;16323;51.130;6.612;2023-03-11T05:11:52;15.80;50.10
29321;DHT22;16323;51.130;6.612;2023-03-11T05:14:19;15.80;50.10
29321;DHT22;16323;51.130;6.612;2023-03-11T05:16:47;15.70;50.00
29321;DHT22;16323;51.130;6.612;2023-03-11T05:19:14;15.70;48.60
29321;DHT22;16323;51.130;6.612;2023-03-11T05:21:56;15.70;48.30
29321;DHT22;16323;51.130;6.612;2023-03-11T05:24:23;15.70;47.70
29321;DHT22;16323;51.130;6.612;2023-03-11T05:26:51;15.60;47.00
29321;DHT22;16323;51.130;6.612;2023-03-11T05:29:18;15.60;46.60
29321;DHT22;16323;51.130;6.612;2023-03-11T05:31:44;15.60;46.40
29321;DHT22;16323;51.130;6.612;2023-03-11T05:34:13;15.60;46.40
29321;DHT22;16323;51.130;6.612;2023-03-11T05:36:39;15.60;46.20
29321;DHT22;16323;51.130;6.612;2023-03-11T05:39:06;15.50;45.50
29321;DHT22;16323;51.130;6.612;2023-03-11T05:41:33;15.50;45.60
29321;DHT22;16323;51.130;6.612;2023-03-11T05:44:00;15.60;45.60
29321;DHT22;16323;51.130;6.612;2023-03-11T05:46:27;15.50;45.30
29321;DHT22;16323;51.130;6.612;2023-03-11T05:48:54;15.50;45.50
29321;DHT22;16323;51.130;6.612;2023-03-11T05:51:22;15.60;45.40
29321;DHT22;16323;51.130;6.612;2023-03-11T05:53:49;15.50;45.80
29321;DHT22;16323;51.130;6.612;2023-03-11T05:56:17;15.60;45.80
29321;DHT22;16323;51.130;6.612;2023-03-11T05:58:45;15.60;45.90
29321;DHT22;16323;51.130;6.612;2023-03-11T06:01:13;15.60;46.00
29321;DHT22;16323;51.130;6.612;2023-03-11T06:03:41;15.60;46.20
29321;DHT22;16323;51.130;6.612;2023-03-11T06:06:10;15.60;45.80
29321;DHT22;16323;51.130;6.612;2023-03-11T06:08:38;15.60;45.90
29321;DHT22;16323;51.130;6.612;2023-03-11T06:11:10;15.60;45.90
29321;DHT22;16323;51.130;6.612;2023-03-11T06:13:37;15.60;46.00
29321;DHT22;16323;51.130;6.612;2023-03-11T06:16:04;15.60;44.90
29321;DHT22;16323;51.130;6.612;2023-03-11T06:18:32;15.60;44.50
29321;DHT22;16323;51.130;6.612;2023-03-11T06:20:59;15.60;44.10
29321;DHT22;16323;51.130;6.612;2023-03-11T06:23:27;15.60;44.30
29321;DHT22;16323;51.130;6.612;2023-03-11T06:25:56;15.50;44.70
29321;DHT22;16323;51.130;6.612;2023-03-11T06:28:23;15.50;44.20
29321;DHT22;16323;51.130;6.612;2023-03-11T06:30:50;15.50;44.40
29321;DHT22;16323;51.130;6.612;2023-03-11T06:33:17;15.50;47.00
29321;DHT22;16323;51.130;6.612;2023-03-11T06:35:44;15.60;46.90
29321;DHT22;16323;51.130;6.612;2023-03-11T06:38:11;15.60;45.80
29321;DHT22;16323;51.130;6.612;2023-03-11T06:40:37;15.60;45.30
29321;DHT22;16323;51.130;6.612;2023-03-11T06:43:06;15.50;44.90
29321;DHT22;16323;51.130;6.612;2023-03-11T06:45:32;15.50;44.90
29321;DHT22;16323;51.130;6.612;2023-03-11T06:47:59;15.50;44.60
29321;DHT22;16323;51.130;6.612;2023-03-11T06:50:26;15.50;44.40
29321;DHT22;16323;51.130;6.612;2023-03-11T06:52:53;15.50;45.20
29321;DHT22;16323;51.130;6.612;2023-03-11T06:55:20;15.50;45.00
29321;DHT22;16323;51.130;6.612;2023-03-11T06:57:46;15.50;44.90
29321;DHT22;16323;51.130;6.612;2023-03-11T07:00:15;15.50;45.10
29321;DHT22;16323;51.130;6.612;2023-03-11T07:02:42;15.50;45.00
29321;DHT22;16323;51.130;6.612;2023-03-11T07:05:09;15.50;45.20
29321;DHT22;16323;51.130;6.612;2023-03-11T07:07:37;15.50;45.10
29321;DHT22;16323;51.130;6.612;2023-03-11T07:10:04;15.50;45.00
29321;DHT22;16323;51.130;6.612;2023-03-11T07:12:32;15.50;45.10
29321;DHT22;16323;51.130;6.612;2023-03-11T07:14:59;15.50;44.70
29321;DHT22;16323;51.130;6.612;2023-03-11T07:17:27;15.50;44.00
29321;DHT22;16323;51.130;6.612;2023-03-11T07:19:54;15.50;44.00
29321;DHT22;16323;51.130;6.612;2023-03-11T07:22:21;15.40;43.90
29321;DHT22;16323;51.130;6.612;2023-03-11T07:24:48;15.50;44.30
29321;DHT22;16323;51.130;6.612;2023-03-11T07:27:16;15.40;44.00
29321;DHT22;16323;51.130;6.612;2023-03-11T07:29:42;15.40;43.70
29321;DHT22;16323;51.130;6.612;2023-03-11T07:32:09;15.40;43.70
29321;DHT22;16323;51.130;6.612;2023-03-11T07:34:37;15.40;43.90
29321;DHT22;16323;51.130;6.612;2023-03-11T07:37:04;15.40;43.70
29321;DHT22;16323;51.130;6.612;2023-03-11T07:39:31;15.40;43.70
29321;DHT22;16323;51.130;6.612;2023-03-11T07:41:58;15.40;43.60
29321;DHT22;16323;51.130;6.612;2023-03-11T07:44:24;15.40;43.50
29321;DHT22;16323;51.130;6.612;2023-03-11T07:46:51;15.40;43.60
29321;DHT22;16323;51.130;6.612;2023-03-11T07:49:18;15.30;43.40
29321;DHT22;16323;51.130;6.612;2023-03-11T07:51:46;15.40;43.50
29321;DHT22;16323;51.130;6.612;2023-03-11T07:54:13;15.40;43.40
29321;DHT22;16323;51.130;6.612;2023-03-11T07:56:40;15.40;43.40
29321;DHT22;16323;51.130;6.612;2023-03-11T07:59:07;15.50;43.60
29321;DHT22;16323;51.130;6.612;2023-03-11T08:01:34;15.50;43.60
29321;DHT22;16323;51.130;6.612;2023-03-11T08:04:07;15.50;43.30
29321;DHT22;16323;51.130;6.612;2023-03-11T08:06:35;15.50;43.30
29321;DHT22;16323;51.130;6.612;2023-03-11T08:09:05;15.50;43.40
29321;DHT22;16323;51.130;6.612;2023-03-11T08:11:33;15.50;43.40
29321;DHT22;16323;51.130;6.612;2023-03-11T08:14:00;15.50;43.30
29321;DHT22;16323;51.130;6.612;2023-03-11T08:16:27;15.50;43.10
29321;DHT22;16323;51.130;6.612;2023-03-11T08:18:55;15.50;42.80
29321;DHT22;16323;51.130;6.612;2023-03-11T08:21:24;15.40;42.80
29321;DHT22;16323;51.130;6.612;2023-03-11T08:23:55;15.40;42.50
29321;DHT22;16323;51.130;6.612;2023-03-11T08:26:23;15.40;42.60
29321;DHT22;16323;51.130;6.612;2023-03-11T08:28:50;15.40;42.60
29321;DHT22;16323;51.130;6.612;2023-03-11T08:31:18;15.40;42.50
29321;DHT22;16323;51.130;6.612;2023-03-11T08:33:47;15.40;42.40
29321;DHT22;16323;51.130;6.612;2023-03-11T08:36:14;15.40;42.20
29321;DHT22;16323;51.130;6.612;2023-03-11T08:38:41;15.40;42.30
29321;DHT22;16323;51.130;6.612;2023-03-11T08:41:08;15.40;42.40
29321;DHT22;16323;51.130;6.612;2023-03-11T08:43:37;15.40;46.40
29321;DHT22;16323;51.130;6.612;2023-03-11T08:46:04;15.40;46.00
29321;DHT22;16323;51.130;6.612;2023-03-11T08:48:32;15.40;44.40
29321;DHT22;16323;51.130;6.612;2023-03-11T08:50:59;15.40;43.90
29321;DHT22;16323;51.130;6.612;2023-03-11T08:53:27;15.40;43.50
29321;DHT22;16323;51.130;6.612;2023-03-11T08:55:54;15.40;42.30
29321;DHT22;16323;51.130;6.612;2023-03-11T08:58:21;15.50;43.20
29321;DHT22;16323;51.130;6.612;2023-03-11T09:00:49;15.50;43.20
29321;DHT22;16323;51.130;6.612;2023-03-11T09:03:16;15.50;43.20
29321;DHT22;16323;51.130;6.612;2023-03-11T09:05:43;15.50;42.90
29321;DHT22;16323;51.130;6.612;2023-03-11T09:08:09;15.50;42.60
29321;DHT22;16323;51.130;6.612;2023-03-11T09:10:36;15.50;42.70
29321;DHT22;16323;51.130;6.612;2023-03-11T09:13:03;15.50;42.40
29321;DHT22;16323;51.130;6.612;2023-03-11T09:15:30;15.50;42.30
29321;DHT22;16323;51.130;6.612;2023-03-11T09:17:58;15.50;42.10
29321;DHT22;16323;51.130;6.612;2023-03-11T09:20:25;15.50;43.30
29321;DHT22;16323;51.130;6.612;2023-03-11T09:22:53;15.50;41.80
29321;DHT22;16323;51.130;6.612;2023-03-11T09:25:19;15.50;41.50
29321;DHT22;16323;51.130;6.612;2023-03-11T09:27:46;15.50;41.50
29321;DHT22;16323;51.130;6.612;2023-03-11T09:30:13;15.50;41.30
29321;DHT22;16323;51.130;6.612;2023-03-11T09:32:40;15.50;41.30
29321;DHT22;16323;51.130;6.612;2023-03-11T09:35:09;15.50;41.20
29321;DHT22;16323;51.130;6.612;2023-03-11T09:37:35;15.50;41.10
29321;DHT22;16323;51.130;6.612;2023-03-11T09:40:03;15.50;41.10
29321;DHT22;16323;51.130;6.612;2023-03-11T09:42:34;15.50;41.20
29321;DHT22;16323;51.130;6.612;2023-03-11T09:45:05;15.50;41.10
29321;DHT22;16323;51.130;6.612;2023-03-11T09:47:38;15.50;40.90
29321;DHT22;16323;51.130;6.612;2023-03-11T09:50:21;15.50;40.80
29321;DHT22;16323;51.130;6.612;2023-03-11T09:53:08;15.50;40.60
29321;DHT22;16323;51.130;6.612;2023-03-11T09:55:41;15.50;40.60
29321;DHT22;16323;51.130;6.612;2023-03-11T09:58:12;15.50;40.40
29321;DHT22;16323;51.130;6.612;2023-03-11T10:00:39;15.50;40.10
29321;DHT22;16323;51.130;6.612;2023-03-11T10:03:15;15.50;40.20
29321;DHT22;16323;51.130;6.612;2023-03-11T10:05:45;15.50;40.00
29321;DHT22;16323;51.130;6.612;2023-03-11T10:08:18;15.60;40.60
29321;DHT22;16323;51.130;6.612;2023-03-11T10:10:52;15.60;40.80
29321;DHT22;16323;51.130;6.612;2023-03-11T10:13:26;15.60;40.30
29321;DHT22;16323;51.130;6.612;2023-03-11T10:16:04;15.60;39.90
29321;DHT22;16323;51.130;6.612;2023-03-11T10:18:45;15.60;38.80
29321;DHT22;16323;51.130;6.612;2023-03-11T10:21:23;15.60;39.00
29321;DHT22;16323;51.130;6.612;2023-03-11T10:24:01;15.50;38.90
29321;DHT22;16323;51.130;6.612;2023-03-11T10:26:32;15.50;38.50
29321;DHT22;16323;51.130;6.612;2023-03-11T10:29:09;15.50;38.80
29321;DHT22;16323;51.130;6.612;2023-03-11T10:31:42;15.50;38.80
29321;DHT22;16323;51.130;6.612;2023-03-11T10:34:17;15.50;38.80
29321;DHT22;16323;51.130;6.612;2023-03-11T10:36:52;15.50;38.60
29321;DHT22;16323;51.130;6.612;2023-03-11T10:39:22;15.50;38.90
29321;DHT22;16323;51.130;6.612;2023-03-11T10:41:51;15.40;38.80
29321;DHT22;16323;51.130;6.612;2023-03-11T10:44:22;15.40;38.40
29321;DHT22;16323;51.130;6.612;2023-03-11T10:46:50;15.50;39.50
29321;DHT22;16323;51.130;6.612;2023-03-11T10:49:17;15.50;39.20
29321;DHT22;16323;51.130;6.612;2023-03-11T10:51:47;15.50;39.20
29321;DHT22;16323;51.130;6.612;2023-03-11T10:54:23;15.50;39.20
29321;DHT22;16323;51.130;6.612;2023-03-11T10:56:54;15.50;38.80
29321;DHT22;16323;51.130;6.612;2023-03-11T10:59:26;15.60;38.90
29321;DHT22;16323;51.130;6.612;2023-03-11T11:01:54;15.60;38.50
29321;DHT22;16323;51.130;6.612;2023-03-11T11:04:27;15.60;38.60
29321;DHT22;16323;51.130;6.612;2023-03-11T11:06:54;15.60;38.70
29321;DHT22;16323;51.130;6.612;2023-03-11T11:09:22;15.60;39.00
29321;DHT22;16323;51.130;6.612;2023-03-11T11:12:01;15.60;38.00
29321;DHT22;16323;51.130;6.612;2023-03-11T11:14:45;15.60;38.10
29321;DHT22;16323;51.130;6.612;2023-03-11T11:17:17;15.60;38.10
29321;DHT22;16323;51.130;6.612;2023-03-11T11:19:44;15.60;38.50
29321;DHT22;16323;51.130;6.612;2023-03-11T11:22:15;15.60;38.50
29321;DHT22;16323;51.130;6.612;2023-03-11T11:24:45;15.50;38.40
29321;DHT22;16323;51.130;6.612;2023-03-11T11:27:18;15.50;38.60
29321;DHT22;16323;51.130;6.612;2023-03-11T11:29:46;15.50;39.00
29321;DHT22;16323;51.130;6.612;2023-03-11T11:32:22;15.50;39.90
29321;DHT22;16323;51.130;6.612;2023-03-11T11:34:54;15.50;40.40
29321;DHT22;16323;51.130;6.612;2023-03-11T11:37:23;15.50;41.10
29321;DHT22;16323;51.130;6.612;2023-03-11T11:39:56;15.50;41.30
29321;DHT22;16323;51.130;6.612;2023-03-11T11:42:25;15.50;41.30
29321;DHT22;16323;51.130;6.612;2023-03-11T11:44:58;15.50;42.70
29321;DHT22;16323;51.130;6.612;2023-03-11T11:47:32;15.50;41.30
29321;DHT22;16323;51.130;6.612;2023-03-11T11:50:03;15.50;41.40
29321;DHT22;16323;51.130;6.612;2023-03-11T11:52:36;15.50;41.10
29321;DHT22;16323;51.130;6.612;2023-03-11T11:55:17;15.60;41.50
29321;DHT22;16323;51.130;6.612;2023-03-11T11:57:45;15.60;41.30
29321;DHT22;16323;51.130;6.612;2023-03-11T12:00:17;15.70;42.50
29321;DHT22;16323;51.130;6.612;2023-03-11T12:02:55;15.70;41.10
29321;DHT22;16323;51.130;6.612;2023-03-11T12:05:28;15.70;41.20
29321;DHT22;16323;51.130;6.612;2023-03-11T12:08:07;15.70;41.30
29321;DHT22;16323;51.130;6.612;2023-03-11T12:10:41;15.70;41.10
29321;DHT22;16323;51.130;6.612;2023-03-11T12:13:28;15.70;41.20
29321;DHT22;16323;51.130;6.612;2023-03-11T12:16:01;15.70;41.40
29321;DHT22;16323;51.130;6.612;2023-03-11T12:18:35;15.70;41.50
29321;DHT22;16323;51.130;6.612;2023-03-11T12:21:10;15.70;41.60
29321;DHT22;16323;51.130;6.612;2023-03-11T12:23:47;15.70;42.20
29321;DHT22;16323;51.130;6.612;2023-03-11T12:26:20;15.70;42.50
29321;DHT22;16323;51.130;6.612;2023-03-11T12:28:52;15.70;42.40
29321;DHT22;16323;51.130;6.612;2023-03-11T12:31:22;15.70;42.60
29321;DHT22;16323;51.130;6.612;2023-03-11T12:33:54;15.70;42.50
29321;DHT22;16323;51.130;6.612;2023-03-11T12:36:28;15.70;42.50
29321;DHT22;16323;51.130;6.612;2023-03-11T12:38:56;15.70;42.50
29321;DHT22;16323;51.130;6.612;2023-03-11T12:41:30;15.70;42.30
29321;DHT22;16323;51.130;6.612;2023-03-11T12:44:02;15.70;42.70
29321;DHT22;16323;51.130;6.612;2023-03-11T12:49:37;15.70;42.30
29321;DHT22;16323;51.130;6.612;2023-03-11T12:52:20;15.70;42.30
29321;DHT22;16323;51.130;6.612;2023-03-11T12:54:48;15.70;42.30
29321;DHT22;16323;51.130;6.612;2023-03-11T12:57:43;15.80;42.50
29321;DHT22;16323;51.130;6.612;2023-03-11T13:00:25;15.70;42.10
29321;DHT22;16323;51.130;6.612;2023-03-11T13:03:22;15.80;42.20
29321;DHT22;16323;51.130;6.612;2023-03-11T13:05:59;15.80;42.40
29321;DHT22;16323;51.130;6.612;2023-03-11T13:08:32;15.80;42.10
29321;DHT22;16323;51.130;6.612;2023-03-11T13:11:27;15.80;42.10
29321;DHT22;16323;51.130;6.612;2023-03-11T13:14:16;15.80;42.10
29321;DHT22;16323;51.130;6.612;2023-03-11T13:16:46;15.80;42.20
29321;DHT22;16323;51.130;6.612;2023-03-11T13:25:36;15.80;42.00
29321;DHT22;16323;51.130;6.612;2023-03-11T13:28:23;15.80;42.00
29321;DHT22;16323;51.130;6.612;2023-03-11T13:30:58;15.80;42.00
29321;DHT22;16323;51.130;6.612;2023-03-11T13:33:49;15.70;41.80
29321;DHT22;16323;51.130;6.612;2023-03-11T13:36:36;15.80;42.10
29321;DHT22;16323;51.130;6.612;2023-03-11T13:39:22;15.70;42.20
29321;DHT22;16323;51.130;6.612;2023-03-11T13:41:51;15.70;42.40
29321;DHT22;16323;51.130;6.612;2023-03-11T13:44:25;15.70;42.70
29321;DHT22;16323;51.130;6.612;2023-03-11T13:46:57;15.70;42.30
29321;DHT22;16323;51.130;6.612;2023-03-11T13:49:31;15.70;42.70
29321;DHT22;16323;51.130;6.612;2023-03-11T13:52:01;15.70;42.40
29321;DHT22;16323;51.130;6.612;2023-03-11T13:54:45;15.70;43.20
29321;DHT22;16323;51.130;6.612;2023-03-11T13:57:24;15.70;42.60
29321;DHT22;16323;51.130;6.612;2023-03-11T13:59:54;15.70;42.40
29321;DHT22;16323;51.130;6.612;2023-03-11T14:02:24;15.80;42.40
29321;DHT22;16323;51.130;6.612;2023-03-11T14:04:55;15.80;42.60
29321;DHT22;16323;51.130;6.612;2023-03-11T14:07:26;15.80;42.60
29321;DHT22;16323;51.130;6.612;2023-03-11T14:10:14;15.80;42.50
29321;DHT22;16323;51.130;6.612;2023-03-11T14:12:42;15.80;42.50
29321;DHT22;16323;51.130;6.612;2023-03-11T14:15:12;15.90;42.10
29321;DHT22;16323;51.130;6.612;2023-03-11T14:17:43;15.90;42.20
29321;DHT22;16323;51.130;6.612;2023-03-11T14:20:15;15.90;42.40
29321;DHT22;16323;51.130;6.612;2023-03-11T14:22:47;15.80;42.10
29321;DHT22;16323;51.130;6.612;2023-03-11T14:25:17;15.80;42.50
29321;DHT22;16323;51.130;6.612;2023-03-11T14:27:50;15.80;42.80
29321;DHT22;16323;51.130;6.612;2023-03-11T14:30:22;15.80;42.30
29321;DHT22;16323;51.130;6.612;2023-03-11T14:33:04;15.80;42.00
29321;DHT22;16323;51.130;6.612;2023-03-11T14:35:32;15.80;42.30
29321;DHT22;16323;51.130;6.612;2023-03-11T14:38:00;15.80;42.60
29321;DHT22;16323;51.130;6.612;2023-03-11T14:40:28;15.80;43.00
29321;DHT22;16323;51.130;6.612;2023-03-11T14:42:58;15.80;42.60
29321;DHT22;16323;51.130;6.612;2023-03-11T14:45:28;15.80;42.50
29321;DHT22;16323;51.130;6.612;2023-03-11T14:48:01;15.80;42.80
29321;DHT22;16323;51.130;6.612;2023-03-11T14:50:30;15.80;42.90
29321;DHT22;16323;51.130;6.612;2023-03-11T14:53:02;15.80;43.30
29321;DHT22;16323;51.130;6.612;2023-03-11T14:55:32;15.80;42.90
29321;DHT22;16323;51.130;6.612;2023-03-11T14:58:02;15.80;42.50
29321;DHT22;16323;51.130;6.612;2023-03-11T15:00:35;15.90;42.50
29321;DHT22;16323;51.130;6.612;2023-03-11T15:03:11;15.90;42.10
29321;DHT22;16323;51.130;6.612;2023-03-11T15:05:42;15.90;41.30
29321;DHT22;16323;51.130;6.612;2023-03-11T15:08:10;15.90;40.80
29321;DHT22;16323;51.130;6.612;2023-03-11T15:10:37;15.80;40.60
29321;DHT22;16323;51.130;6.612;2023-03-11T15:13:12;15.80;40.40
29321;DHT22;16323;51.130;6.612;2023-03-11T15:15:40;15.80;40.00
29321;DHT22;16323;51.130;6.612;2023-03-11T15:18:24;15.70;40.20
29321;DHT22;16323;51.130;6.612;2023-03-11T15:21:05;15.70;40.30
29321;DHT22;16323;51.130;6.612;2023-03-11T15:23:34;15.80;40.20
29321;DHT22;16323;51.130;6.612;2023-03-11T15:26:02;15.80;40.20
29321;DHT22;16323;51.130;6.612;2023-03-11T15:28:32;15.70;40.80
29321;DHT22;16323;51.130;6.612;2023-03-11T15:31:23;15.80;41.30
29321;DHT22;16323;51.130;6.612;2023-03-11T15:34:07;15.80;41.50
29321;DHT22;16323;51.130;6.612;2023-03-11T15:36:36;15.80;41.60
29321;DHT22;16323;51.130;6.612;2023-03-11T15:39:12;15.80;44.30
29321;DHT22;16323;51.130;6.612;2023-03-11T15:41:40;16.00;43.70
29321;DHT22;16323;51.130;6.612;2023-03-11T15:44:24;16.00;45.80
29321;DHT22;16323;51.130;6.612;2023-03-11T15:46:53;16.00;46.10
29321;DHT22;16323;51.130;6.612;2023-03-11T15:49:21;16.00;49.70
29321;DHT22;16323;51.130;6.612;2023-03-11T15:51:48;16.00;50.30
29321;DHT22;16323;51.130;6.612;2023-03-11T15:54:15;16.00;52.00
29321;DHT22;16323;51.130;6.612;2023-03-11T15:56:42;15.90;52.40